Time;durP1;ratioP1;P1;durP2;ratioP2;P2;SDS_P1;SDS_P2;PMS_P1;PMS_P2;Temp;Humidity;BMP_temperature;BMP_pressure;BME280_temperature;BME280_humidity;BME280_pressure;Samples;Min_cycle;Max_cycle;Signal;HPM_P1;HPM_P2
2023/09/14 00:02:07;;;;;;;0.30;0.30;;;15.80;99.90;;;;;;4414907;32;20105;-62
2023/09/14 00:04:33;;;;;;;0.30;0.30;;;15.90;99.90;;;;;;4397845;32;20085;-63
2023/09/14 00:06:58;;;;;;;1.00;0.40;;;15.90;99.90;;;;;;4415002;32;20541;-62
2023/09/14 00:09:24;;;;;;;0.30;0.30;;;15.90;99.90;;;;;;4414366;32;20106;-62
2023/09/14 00:11:49;;;;;;;0.30;0.30;;;15.90;99.90;;;;;;4413414;32;20154;-62
2023/09/14 00:14:14;;;;;;;0.35;0.35;;;15.90;99.90;;;;;;4413302;32;20325;-62
2023/09/14 00:16:40;;;;;;;0.30;0.30;;;15.90;99.90;;;;;;4415798;32;20145;-61
2023/09/14 00:19:05;;;;;;;0.40;0.40;;;15.80;99.90;;;;;;4415575;32;20073;-62
2023/09/14 00:21:31;;;;;;;0.62;0.62;;;15.80;99.90;;;;;;4398379;32;20240;-63
2023/09/14 00:23:56;;;;;;;5.45;1.62;;;15.80;99.90;;;;;;4414590;32;20089;-63
2023/09/14 00:26:22;;;;;;;1.00;0.93;;;15.80;99.90;;;;;;4413558;32;20089;-62
2023/09/14 00:28:47;;;;;;;0.75;0.50;;;15.80;99.90;;;;;;4414495;32;20605;-62
2023/09/14 00:31:13;;;;;;;1.87;1.02;;;15.80;99.90;;;;;;4411099;32;20410;-63
2023/09/14 00:33:38;;;;;;;0.30;0.30;;;15.90;99.90;;;;;;4411940;32;20081;-61
2023/09/14 00:36:04;;;;;;;0.30;0.30;;;15.90;99.90;;;;;;4401203;32;21823;-62
2023/09/14 00:38:30;;;;;;;1.17;0.40;;;15.80;99.90;;;;;;4413820;32;20144;-63
2023/09/14 00:40:55;;;;;;;0.32;0.32;;;15.90;99.90;;;;;;4395629;32;20105;-63
2023/09/14 00:43:21;;;;;;;0.20;0.20;;;15.90;99.90;;;;;;4412939;32;20085;-63
2023/09/14 00:45:46;;;;;;;0.37;0.37;;;15.80;99.90;;;;;;4416287;32;20062;-63
2023/09/14 00:48:12;;;;;;;0.93;0.40;;;15.80;99.90;;;;;;4414379;32;20081;-62
2023/09/14 00:50:38;;;;;;;1.30;0.52;;;15.80;99.90;;;;;;4413675;32;20085;-62
2023/09/14 00:53:07;;;;;;;0.30;0.30;;;15.70;99.90;;;;;;4415239;32;20085;-61
2023/09/14 00:55:33;;;;;;;0.32;0.32;;;15.70;99.90;;;;;;4416478;32;20334;-63
2023/09/14 00:57:59;;;;;;;0.40;0.40;;;15.70;99.90;;;;;;4416843;32;20565;-63
2023/09/14 01:00:26;;;;;;;0.50;0.50;;;15.70;99.90;;;;;;4415453;32;20089;-63
2023/09/14 01:02:54;;;;;;;1.35;0.40;;;15.70;99.90;;;;;;4412233;32;20085;-62
2023/09/14 01:05:20;;;;;;;0.57;0.57;;;15.60;99.90;;;;;;4413258;32;20082;-63
2023/09/14 01:07:46;;;;;;;0.30;0.30;;;15.70;99.90;;;;;;4415758;32;20061;-64
2023/09/14 01:10:15;;;;;;;0.30;0.30;;;15.60;99.90;;;;;;4413249;32;20102;-61
2023/09/14 01:12:41;;;;;;;0.32;0.32;;;15.60;99.90;;;;;;4416370;32;20060;-63
2023/09/14 01:15:20;;;;;;;0.52;0.52;;;15.60;99.90;;;;;;4418147;32;20089;-62
2023/09/14 01:18:01;;;;;;;0.30;0.30;;;15.50;99.90;;;;;;4413906;32;20129;-64
2023/09/14 01:20:51;;;;;;;9.65;0.88;;;15.50;99.90;;;;;;4414165;32;20078;-62
2023/09/14 01:23:44;;;;;;;0.30;0.30;;;15.50;99.90;;;;;;4397370;32;20085;-60
2023/09/14 01:26:10;;;;;;;0.75;0.75;;;15.40;99.90;;;;;;4413858;32;20670;-62
2023/09/14 01:28:35;;;;;;;0.30;0.30;;;15.30;99.90;;;;;;4408236;32;20085;-63
2023/09/14 01:31:01;;;;;;;0.50;0.40;;;15.30;99.90;;;;;;4415673;32;20073;-62
2023/09/14 01:33:29;;;;;;;0.40;0.40;;;15.20;99.90;;;;;;4414053;32;20202;-64
2023/09/14 01:35:57;;;;;;;0.30;0.30;;;15.10;99.90;;;;;;4413178;32;20603;-63
2023/09/14 01:38:24;;;;;;;0.28;0.28;;;15.10;99.90;;;;;;4415987;32;20109;-62
2023/09/14 01:40:51;;;;;;;0.43;0.43;;;15.20;99.90;;;;;;4412986;32;20097;-63
2023/09/14 01:43:17;;;;;;;0.37;0.30;;;15.10;99.90;;;;;;4413239;32;20053;-61
2023/09/14 01:45:43;;;;;;;0.30;0.30;;;15.00;99.90;;;;;;4415726;32;20504;-60
2023/09/14 01:48:15;;;;;;;2.53;0.40;;;15.00;99.90;;;;;;4415091;32;20131;-63
2023/09/14 01:50:41;;;;;;;0.52;0.52;;;15.00;99.90;;;;;;4413818;32;20089;-63
2023/09/14 01:53:06;;;;;;;0.40;0.40;;;15.00;99.90;;;;;;4416427;32;20491;-63
2023/09/14 01:55:32;;;;;;;1.65;0.77;;;14.90;99.90;;;;;;4415007;32;20101;-64
2023/09/14 01:57:57;;;;;;;2.20;1.10;;;14.90;99.90;;;;;;4413724;32;20132;-63
2023/09/14 02:00:25;;;;;;;14.75;3.03;;;14.90;99.90;;;;;;4411820;32;20108;-60
2023/09/14 02:02:51;;;;;;;0.40;0.40;;;14.90;99.90;;;;;;4417093;32;20073;-63
2023/09/14 02:05:17;;;;;;;0.50;0.50;;;14.80;99.90;;;;;;4403609;32;20116;-60
2023/09/14 02:07:42;;;;;;;0.40;0.40;;;14.80;99.90;;;;;;4413416;32;20475;-59
2023/09/14 02:10:08;;;;;;;2.58;0.52;;;14.90;99.90;;;;;;4417282;32;20082;-59
2023/09/14 02:12:34;;;;;;;0.40;0.40;;;14.80;99.90;;;;;;4413974;32;20472;-60
2023/09/14 02:14:59;;;;;;;0.40;0.40;;;14.70;99.90;;;;;;4418456;32;20124;-59
2023/09/14 02:17:25;;;;;;;0.40;0.40;;;14.60;99.90;;;;;;4410826;32;20072;-62
2023/09/14 02:19:52;;;;;;;0.30;0.30;;;14.60;99.90;;;;;;4416520;32;20117;-61
2023/09/14 02:22:18;;;;;;;0.22;0.22;;;14.60;99.90;;;;;;4403780;32;20061;-61
2023/09/14 02:24:43;;;;;;;0.30;0.30;;;14.50;99.90;;;;;;4415490;32;20588;-60
2023/09/14 02:27:09;;;;;;;0.47;0.30;;;14.50;99.90;;;;;;4413356;32;20072;-60
2023/09/14 02:29:34;;;;;;;0.40;0.40;;;14.50;99.90;;;;;;4412261;32;20161;-60
2023/09/14 02:32:00;;;;;;;2.00;1.08;;;14.60;99.90;;;;;;4411324;32;20077;-63
2023/09/14 02:34:25;;;;;;;0.85;0.50;;;14.60;99.90;;;;;;4411466;32;20539;-62
2023/09/14 02:36:51;;;;;;;16.40;0.62;;;14.50;99.90;;;;;;4413535;32;20085;-60
2023/09/14 02:39:16;;;;;;;3.62;0.77;;;14.40;99.90;;;;;;4411450;32;20381;-59
2023/09/14 02:41:42;;;;;;;0.30;0.30;;;14.30;99.90;;;;;;4413592;32;20089;-59
2023/09/14 02:44:07;;;;;;;1.48;0.57;;;14.20;99.90;;;;;;4413992;32;20529;-58
2023/09/14 02:46:33;;;;;;;0.35;0.35;;;14.30;99.90;;;;;;4413112;32;20082;-59
2023/09/14 02:48:58;;;;;;;0.40;0.40;;;14.30;99.90;;;;;;4416985;32;20061;-58
2023/09/14 02:51:24;;;;;;;2.37;0.40;;;14.20;99.90;;;;;;4411233;32;20094;-60
2023/09/14 02:53:50;;;;;;;0.40;0.40;;;14.20;99.90;;;;;;4412663;32;20192;-60
2023/09/14 02:56:15;;;;;;;0.90;0.65;;;14.30;99.90;;;;;;4416047;32;20119;-60
2023/09/14 02:58:40;;;;;;;0.40;0.40;;;14.00;99.90;;;;;;4414572;32;20101;-60
2023/09/14 03:01:08;;;;;;;0.30;0.30;;;14.00;99.90;;;;;;4414299;32;20154;-60
2023/09/14 03:03:35;;;;;;;1.25;0.57;;;13.90;99.90;;;;;;4397421;32;20148;-61
2023/09/14 03:06:00;;;;;;;0.30;0.30;;;14.00;99.90;;;;;;4399777;32;20196;-62
2023/09/14 03:08:26;;;;;;;0.40;0.40;;;13.90;99.90;;;;;;4418778;32;20095;-62
2023/09/14 03:10:52;;;;;;;0.47;0.45;;;13.90;99.90;;;;;;4416798;32;20073;-61
2023/09/14 03:13:17;;;;;;;0.30;0.30;;;13.90;99.90;;;;;;4414173;32;20072;-58
2023/09/14 03:15:43;;;;;;;0.30;0.30;;;13.80;99.90;;;;;;4400624;32;20121;-58
2023/09/14 03:18:08;;;;;;;0.28;0.28;;;13.70;99.90;;;;;;4411217;32;20143;-59
2023/09/14 03:20:34;;;;;;;0.30;0.30;;;13.70;99.90;;;;;;4416189;32;20068;-62
2023/09/14 03:23:00;;;;;;;4.43;1.17;;;13.70;99.90;;;;;;4414604;32;20114;-61
2023/09/14 03:25:26;;;;;;;0.40;0.40;;;13.80;99.90;;;;;;4413610;32;20253;-59
2023/09/14 03:27:51;;;;;;;0.90;0.52;;;13.80;99.90;;;;;;4413606;32;20144;-61
2023/09/14 03:30:17;;;;;;;0.80;0.43;;;13.70;99.90;;;;;;4412602;32;20136;-59
2023/09/14 03:32:42;;;;;;;2.30;0.85;;;13.70;99.90;;;;;;4412729;32;20152;-60
2023/09/14 03:35:08;;;;;;;0.40;0.40;;;13.70;99.90;;;;;;4413801;32;20520;-62
2023/09/14 03:37:33;;;;;;;0.50;0.50;;;13.60;99.90;;;;;;4416803;32;20082;-61
2023/09/14 03:39:58;;;;;;;0.30;0.30;;;13.60;99.90;;;;;;4414291;32;20074;-60
2023/09/14 03:42:24;;;;;;;0.40;0.40;;;13.50;99.90;;;;;;4413242;32;20085;-62
2023/09/14 03:44:49;;;;;;;0.30;0.30;;;13.40;99.90;;;;;;4413467;32;20144;-60
2023/09/14 03:47:15;;;;;;;15.68;0.82;;;13.40;99.90;;;;;;4411855;32;20194;-62
2023/09/14 03:49:40;;;;;;;3.30;0.40;;;13.40;99.90;;;;;;4413724;32;20074;-61
2023/09/14 03:52:06;;;;;;;11.50;0.88;;;13.40;99.90;;;;;;4413976;32;20097;-62
2023/09/14 03:54:32;;;;;;;2.83;1.55;;;13.40;99.90;;;;;;4412444;32;20223;-63
2023/09/14 03:56:57;;;;;;;0.43;0.40;;;13.40;99.90;;;;;;4397713;32;20439;-59
2023/09/14 03:59:23;;;;;;;0.85;0.55;;;13.40;99.90;;;;;;4413414;32;20062;-62
2023/09/14 04:01:49;;;;;;;0.30;0.30;;;13.30;99.90;;;;;;4415164;32;20110;-60
2023/09/14 04:04:14;;;;;;;0.50;0.50;;;13.40;99.90;;;;;;4414099;32;20461;-60
2023/09/14 04:06:40;;;;;;;1.10;1.00;;;13.40;99.90;;;;;;4410856;32;20094;-60
2023/09/14 04:09:05;;;;;;;0.30;0.30;;;13.30;99.90;;;;;;4412287;32;20106;-60
2023/09/14 04:11:31;;;;;;;4.28;1.05;;;13.30;99.90;;;;;;4411725;32;20414;-60
2023/09/14 04:13:56;;;;;;;0.30;0.30;;;13.30;99.90;;;;;;4414155;32;20112;-61
2023/09/14 04:16:21;;;;;;;0.40;0.40;;;13.30;99.90;;;;;;4410820;32;20128;-63
2023/09/14 04:18:47;;;;;;;0.30;0.30;;;13.20;99.90;;;;;;4414114;32;20075;-62
2023/09/14 04:21:12;;;;;;;1.00;0.75;;;13.20;99.90;;;;;;4411142;32;20089;-61
2023/09/14 04:23:38;;;;;;;0.30;0.30;;;13.20;99.90;;;;;;4413270;32;20451;-61
2023/09/14 04:26:04;;;;;;;0.45;0.45;;;13.10;99.90;;;;;;4413584;32;20119;-62
2023/09/14 04:28:30;;;;;;;1.17;0.90;;;13.10;99.90;;;;;;4415297;32;20080;-60
2023/09/14 04:30:58;;;;;;;0.40;0.40;;;13.00;99.90;;;;;;4415019;32;20090;-59
2023/09/14 04:33:24;;;;;;;0.35;0.35;;;13.00;99.90;;;;;;4402135;32;20155;-60
2023/09/14 04:35:55;;;;;;;1.85;0.52;;;13.20;99.90;;;;;;4416505;32;20560;-60
2023/09/14 04:38:21;;;;;;;0.50;0.50;;;13.20;99.90;;;;;;4413981;32;20069;-62
2023/09/14 04:40:48;;;;;;;0.60;0.60;;;13.10;99.90;;;;;;4414640;32;20119;-59
2023/09/14 04:43:14;;;;;;;0.30;0.30;;;13.00;99.90;;;;;;4418294;32;20077;-60
2023/09/14 04:45:39;;;;;;;1.98;1.30;;;13.00;99.90;;;;;;4413338;32;20073;-60
2023/09/14 04:48:05;;;;;;;0.43;0.43;;;12.90;99.90;;;;;;4413090;32;20120;-60
2023/09/14 04:50:31;;;;;;;0.20;0.20;;;13.00;99.90;;;;;;4401132;32;20887;-61
2023/09/14 04:52:57;;;;;;;0.30;0.30;;;13.00;99.90;;;;;;4399393;32;20144;-62
2023/09/14 04:55:23;;;;;;;1.08;0.77;;;13.00;99.90;;;;;;4414853;32;21001;-61
2023/09/14 04:57:48;;;;;;;0.40;0.40;;;13.00;99.90;;;;;;4414083;32;20061;-60
2023/09/14 05:00:14;;;;;;;0.30;0.30;;;13.10;99.90;;;;;;4413377;32;20089;-62
2023/09/14 05:02:40;;;;;;;0.60;0.60;;;13.20;99.90;;;;;;4409011;32;20124;-61
2023/09/14 05:05:08;;;;;;;0.32;0.32;;;13.10;99.90;;;;;;4413602;32;20124;-59
2023/09/14 05:07:34;;;;;;;4.55;0.60;;;13.10;99.90;;;;;;4412571;32;20086;-59
2023/09/14 05:09:59;;;;;;;0.30;0.30;;;13.10;99.90;;;;;;4413116;32;20543;-60
2023/09/14 05:12:25;;;;;;;0.30;0.30;;;13.10;99.90;;;;;;4413356;32;20077;-59
2023/09/14 05:14:50;;;;;;;0.30;0.30;;;13.10;99.90;;;;;;4414411;32;20093;-60
2023/09/14 05:17:16;;;;;;;0.32;0.32;;;13.10;99.90;;;;;;4401518;32;20109;-61
2023/09/14 05:19:42;;;;;;;0.47;0.47;;;13.10;99.90;;;;;;4408991;32;20085;-61
2023/09/14 05:22:09;;;;;;;0.52;0.52;;;13.10;99.90;;;;;;4413882;32;20128;-62
2023/09/14 05:24:35;;;;;;;0.52;0.52;;;13.10;99.90;;;;;;4398172;32;20100;-61
2023/09/14 05:27:01;;;;;;;0.30;0.30;;;13.10;99.90;;;;;;4397890;32;20520;-62
2023/09/14 05:29:26;;;;;;;0.40;0.40;;;13.20;99.90;;;;;;4385869;32;20109;-60
2023/09/14 05:31:52;;;;;;;0.20;0.20;;;13.20;99.90;;;;;;4388403;32;20608;-61
2023/09/14 05:34:18;;;;;;;2.53;1.58;;;13.20;99.90;;;;;;4402280;32;20414;-63
2023/09/14 05:36:44;;;;;;;0.37;0.37;;;13.30;99.90;;;;;;4406262;32;20070;-63
2023/09/14 05:39:12;;;;;;;1.00;0.90;;;13.30;99.90;;;;;;4405028;32;20070;-62
2023/09/14 05:41:40;;;;;;;0.35;0.35;;;13.30;99.90;;;;;;4406230;32;20093;-62
2023/09/14 05:44:10;;;;;;;0.90;0.77;;;13.40;99.90;;;;;;4389526;32;20159;-61
2023/09/14 05:46:38;;;;;;;0.30;0.30;;;13.30;99.90;;;;;;4376108;32;20200;-63
2023/09/14 05:49:04;;;;;;;0.20;0.20;;;13.20;99.90;;;;;;4397317;32;20804;-63
2023/09/14 05:51:30;;;;;;;1.85;0.70;;;13.20;99.90;;;;;;4397491;32;20101;-61
2023/09/14 05:53:55;;;;;;;0.35;0.35;;;13.30;99.90;;;;;;4379682;32;21148;-63
2023/09/14 05:56:21;;;;;;;0.35;0.35;;;13.20;99.90;;;;;;4383960;32;20209;-64
2023/09/14 05:58:47;;;;;;;0.30;0.30;;;13.30;99.90;;;;;;4377562;32;20435;-65
2023/09/14 06:01:14;;;;;;;0.30;0.30;;;13.30;99.90;;;;;;4374755;32;20085;-64
2023/09/14 06:03:40;;;;;;;0.68;0.43;;;13.30;99.90;;;;;;4393174;32;20225;-65
2023/09/14 06:06:05;;;;;;;0.40;0.40;;;13.20;99.90;;;;;;4384801;32;20081;-65
2023/09/14 06:08:31;;;;;;;0.30;0.30;;;13.30;99.90;;;;;;4370941;32;20096;-65
2023/09/14 06:10:57;;;;;;;0.30;0.30;;;13.40;99.90;;;;;;4395283;32;20139;-63
2023/09/14 06:13:22;;;;;;;0.40;0.40;;;13.50;99.90;;;;;;4390781;32;20105;-64
2023/09/14 06:15:48;;;;;;;0.50;0.50;;;13.60;99.90;;;;;;4385935;32;20121;-64
2023/09/14 06:18:14;;;;;;;0.30;0.30;;;13.50;99.90;;;;;;4391855;32;20887;-64
2023/09/14 06:20:40;;;;;;;5.90;0.52;;;13.60;99.90;;;;;;4397120;32;20081;-64
2023/09/14 06:23:05;;;;;;;0.98;0.98;;;13.70;99.90;;;;;;4403073;32;20118;-64
2023/09/14 06:25:31;;;;;;;0.40;0.40;;;13.70;99.90;;;;;;4399249;32;20118;-63
2023/09/14 06:27:56;;;;;;;1.77;1.35;;;13.70;99.90;;;;;;4396321;32;20723;-64
2023/09/14 06:30:22;;;;;;;0.35;0.35;;;13.80;99.90;;;;;;4403123;32;20093;-64
2023/09/14 06:32:47;;;;;;;0.85;0.57;;;13.80;99.90;;;;;;4399921;32;20162;-64
2023/09/14 06:35:13;;;;;;;0.40;0.40;;;13.90;99.90;;;;;;4403274;32;20098;-63
2023/09/14 06:37:38;;;;;;;0.45;0.45;;;13.90;99.90;;;;;;4409543;32;20104;-62
2023/09/14 06:40:06;;;;;;;1.25;0.52;;;13.90;99.90;;;;;;4410059;32;20121;-64
2023/09/14 06:42:32;;;;;;;0.40;0.40;;;14.10;99.90;;;;;;4402083;32;20906;-64
2023/09/14 06:44:58;;;;;;;3.20;1.35;;;14.20;99.90;;;;;;4393182;32;21085;-63
2023/09/14 06:47:23;;;;;;;0.47;0.47;;;14.10;99.90;;;;;;4376676;32;20575;-64
2023/09/14 06:49:49;;;;;;;0.45;0.45;;;14.10;99.90;;;;;;4370315;32;20077;-63
2023/09/14 06:52:14;;;;;;;0.30;0.30;;;14.20;99.90;;;;;;4367016;32;21601;-64
2023/09/14 06:54:39;;;;;;;0.30;0.30;;;14.40;99.90;;;;;;4385028;32;20105;-65
2023/09/14 06:57:05;;;;;;;0.40;0.40;;;14.40;99.90;;;;;;4372007;32;20097;-65
2023/09/14 06:59:30;;;;;;;0.65;0.45;;;14.40;99.90;;;;;;4355837;32;21136;-64
2023/09/14 07:01:57;;;;;;;22.48;0.62;;;14.50;99.90;;;;;;4363713;32;20121;-64
2023/09/14 07:04:22;;;;;;;0.40;0.40;;;14.50;99.90;;;;;;4379583;32;20106;-65
2023/09/14 07:06:49;;;;;;;0.50;0.50;;;14.60;99.90;;;;;;4382543;32;20109;-63
2023/09/14 07:09:15;;;;;;;0.40;0.40;;;14.70;99.90;;;;;;4393793;32;20172;-62
2023/09/14 07:11:40;;;;;;;1.42;0.68;;;14.80;99.90;;;;;;4387013;32;21036;-65
2023/09/14 07:14:06;;;;;;;0.40;0.40;;;14.90;99.90;;;;;;4387347;32;20612;-64
2023/09/14 07:16:31;;;;;;;0.30;0.30;;;15.00;99.90;;;;;;4374444;32;20072;-65
2023/09/14 07:18:58;;;;;;;0.35;0.35;;;15.00;99.90;;;;;;4382231;32;20089;-65
2023/09/14 07:21:24;;;;;;;1.33;1.20;;;15.00;99.90;;;;;;4374768;32;20217;-64
2023/09/14 07:23:49;;;;;;;0.50;0.50;;;15.10;99.90;;;;;;4378240;32;20340;-62
2023/09/14 07:26:16;;;;;;;0.40;0.40;;;15.10;99.90;;;;;;4363952;32;20088;-64
2023/09/14 07:28:41;;;;;;;0.32;0.32;;;15.10;99.90;;;;;;4368847;32;20698;-65
2023/09/14 07:31:08;;;;;;;0.32;0.32;;;15.20;99.90;;;;;;4367525;32;20090;-62
2023/09/14 07:33:33;;;;;;;0.32;0.32;;;15.20;99.90;;;;;;4371797;32;20122;-65
2023/09/14 07:35:59;;;;;;;2.87;0.60;;;15.30;99.90;;;;;;4383452;32;20184;-64
2023/09/14 07:38:25;;;;;;;0.30;0.30;;;15.40;99.90;;;;;;4388567;32;20086;-64
2023/09/14 07:40:51;;;;;;;0.40;0.40;;;15.40;99.90;;;;;;4390438;32;20081;-63
2023/09/14 07:43:16;;;;;;;0.40;0.40;;;15.50;99.90;;;;;;4397037;32;20304;-62
2023/09/14 07:45:43;;;;;;;0.75;0.65;;;15.60;99.90;;;;;;4396354;32;20096;-64
2023/09/14 07:48:09;;;;;;;0.35;0.35;;;15.70;99.90;;;;;;4382284;32;20085;-63
2023/09/14 07:50:39;;;;;;;0.30;0.30;;;15.70;99.90;;;;;;4379349;32;20113;-62
2023/09/14 07:53:06;;;;;;;1.85;1.25;;;15.80;99.90;;;;;;4361925;32;20086;-63
2023/09/14 07:55:31;;;;;;;0.30;0.30;;;15.80;99.90;;;;;;4375272;32;21368;-62
2023/09/14 07:57:58;;;;;;;0.30;0.30;;;15.90;99.90;;;;;;4376826;32;20098;-63
2023/09/14 08:00:24;;;;;;;0.75;0.75;;;15.90;99.90;;;;;;4361066;32;20533;-62
2023/09/14 08:02:49;;;;;;;2.20;1.23;;;16.00;99.90;;;;;;4379242;32;20254;-62
2023/09/14 08:05:15;;;;;;;0.57;0.57;;;16.10;99.90;;;;;;4382584;32;20156;-64
2023/09/14 08:07:40;;;;;;;0.75;0.50;;;16.10;99.90;;;;;;4382505;32;21166;-63
2023/09/14 08:10:07;;;;;;;0.30;0.30;;;16.10;99.90;;;;;;4376605;32;21027;-64
2023/09/14 08:12:32;;;;;;;0.40;0.40;;;16.20;99.90;;;;;;4377170;32;20211;-64
2023/09/14 08:14:58;;;;;;;0.80;0.70;;;16.20;99.90;;;;;;4378971;32;20682;-63
2023/09/14 08:17:23;;;;;;;0.62;0.50;;;16.30;99.90;;;;;;4381392;32;20433;-62
2023/09/14 08:19:49;;;;;;;0.62;0.60;;;16.40;99.90;;;;;;4390605;32;20086;-62
2023/09/14 08:22:19;;;;;;;1.15;0.57;;;16.50;99.90;;;;;;4387288;32;20319;-63
2023/09/14 08:24:45;;;;;;;0.52;0.52;;;16.60;99.90;;;;;;4387901;32;20089;-63
2023/09/14 08:27:12;;;;;;;0.25;0.25;;;16.70;99.90;;;;;;4394124;32;20057;-64
2023/09/14 08:29:37;;;;;;;0.30;0.30;;;16.70;99.90;;;;;;4386971;32;20194;-63
2023/09/14 08:32:04;;;;;;;0.30;0.30;;;16.80;99.90;;;;;;4382852;32;20837;-65
2023/09/14 08:34:29;;;;;;;0.30;0.30;;;16.80;99.90;;;;;;4384224;32;20085;-65
2023/09/14 08:36:55;;;;;;;0.40;0.40;;;16.90;99.90;;;;;;4382597;32;20085;-65
2023/09/14 08:39:20;;;;;;;2.35;0.88;;;16.90;99.90;;;;;;4384983;32;20080;-62
2023/09/14 08:41:46;;;;;;;0.88;0.82;;;17.00;99.90;;;;;;4383012;32;20077;-65
2023/09/14 08:44:15;;;;;;;0.30;0.30;;;17.10;99.90;;;;;;4385266;32;20554;-64
2023/09/14 08:46:42;;;;;;;0.30;0.30;;;17.20;99.90;;;;;;4359507;32;21073;-64
2023/09/14 08:49:11;;;;;;;0.40;0.40;;;17.20;99.90;;;;;;4371823;32;20088;-65
2023/09/14 08:51:39;;;;;;;0.30;0.30;;;17.30;99.90;;;;;;4373971;32;20128;-64
2023/09/14 08:54:05;;;;;;;0.30;0.30;;;17.30;99.90;;;;;;4366959;32;20857;-63
2023/09/14 08:56:32;;;;;;;0.30;0.30;;;17.40;99.90;;;;;;4389726;32;20856;-65
2023/09/14 08:59:01;;;;;;;0.60;0.60;;;17.40;99.90;;;;;;4380334;32;20448;-63
2023/09/14 09:01:27;;;;;;;0.40;0.40;;;17.50;99.90;;;;;;4360952;32;20635;-65
2023/09/14 09:03:53;;;;;;;0.32;0.32;;;17.60;99.90;;;;;;4349304;32;20946;-65
2023/09/14 09:06:20;;;;;;;0.20;0.20;;;17.60;99.90;;;;;;4355094;32;20253;-65
2023/09/14 09:08:46;;;;;;;0.30;0.30;;;17.70;99.90;;;;;;4342222;32;20662;-64
2023/09/14 09:11:12;;;;;;;2.10;0.90;;;17.80;99.90;;;;;;4338792;32;20186;-64
2023/09/14 09:13:43;;;;;;;0.20;0.20;;;17.80;99.90;;;;;;4379155;32;20155;-64
2023/09/14 09:16:11;;;;;;;0.30;0.30;;;17.90;99.90;;;;;;4369405;32;20848;-64
2023/09/14 09:19:05;;;;;;;0.35;0.35;;;18.00;99.90;;;;;;4360978;32;20104;-65
2023/09/14 09:21:33;;;;;;;0.40;0.40;;;18.00;99.90;;;;;;4354476;32;20141;-65
2023/09/14 09:24:03;;;;;;;0.30;0.30;;;18.10;99.90;;;;;;4363890;32;20686;-65
2023/09/14 09:26:35;;;;;;;0.30;0.30;;;18.00;99.90;;;;;;4376632;32;20109;-64
2023/09/14 09:29:18;;;;;;;0.30;0.30;;;18.10;99.90;;;;;;4363938;32;20700;-65
2023/09/14 09:31:45;;;;;;;0.28;0.25;;;18.30;99.90;;;;;;4377259;32;20168;-65
2023/09/14 09:34:12;;;;;;;0.28;0.28;;;18.60;99.90;;;;;;4356458;32;20298;-64
2023/09/14 09:36:38;;;;;;;0.20;0.20;;;18.70;99.90;;;;;;4360209;32;20885;-64
2023/09/14 09:39:05;;;;;;;0.40;0.40;;;18.80;99.90;;;;;;4362538;32;20437;-64
2023/09/14 09:41:33;;;;;;;0.30;0.30;;;18.90;99.90;;;;;;4364466;32;21622;-64
2023/09/14 09:43:58;;;;;;;0.32;0.32;;;19.10;99.90;;;;;;4384063;32;20140;-64
2023/09/14 09:46:24;;;;;;;0.35;0.35;;;19.30;99.90;;;;;;4377491;32;20164;-63
2023/09/14 09:48:50;;;;;;;0.30;0.30;;;19.20;99.90;;;;;;4380464;32;20089;-64
2023/09/14 09:51:21;;;;;;;0.30;0.30;;;19.10;99.90;;;;;;4376017;32;20536;-63
2023/09/14 09:54:06;;;;;;;;;;;18.80;99.90;;;;;;4381368;32;20085;-64
2023/09/14 09:56:34;;;;;;;0.20;0.20;;;18.60;99.90;;;;;;4364331;32;20017;-64
2023/09/14 09:59:04;;;;;;;0.37;0.37;;;18.30;99.90;;;;;;4369139;32;20201;-64
2023/09/14 10:01:30;;;;;;;0.30;0.30;;;18.50;99.90;;;;;;4376962;32;20137;-63
2023/09/14 10:03:59;;;;;;;0.45;0.45;;;18.80;99.90;;;;;;4382333;32;20081;-63
2023/09/14 10:06:24;;;;;;;2.03;1.37;;;19.10;99.90;;;;;;4387766;32;20077;-62
2023/09/14 10:08:56;;;;;;;0.40;0.40;;;19.40;99.90;;;;;;4389844;32;20506;-64
2023/09/14 10:11:24;;;;;;;0.20;0.20;;;19.50;99.90;;;;;;4385771;32;20737;-64
2023/09/14 10:13:50;;;;;;;0.30;0.30;;;19.60;99.90;;;;;;4386103;32;20451;-64
2023/09/14 10:16:21;;;;;;;0.32;0.32;;;19.30;99.90;;;;;;4353340;32;21188;-63
2023/09/14 10:18:49;;;;;;;0.20;0.20;;;19.20;99.90;;;;;;4370528;32;20093;-64
2023/09/14 10:21:16;;;;;;;0.40;0.40;;;19.20;99.90;;;;;;4396013;32;20160;-64
2023/09/14 10:23:43;;;;;;;0.30;0.30;;;19.20;99.90;;;;;;4405626;32;20150;-63
2023/09/14 10:26:08;;;;;;;1.20;0.80;;;19.40;99.90;;;;;;4408114;32;20118;-65
2023/09/14 10:28:37;;;;;;;1.98;1.05;;;19.60;99.90;;;;;;4390901;32;20098;-65
2023/09/14 10:31:03;;;;;;;0.22;0.22;;;19.80;99.90;;;;;;4391004;32;20606;-64
2023/09/14 10:33:29;;;;;;;0.25;0.25;;;19.90;99.90;;;;;;4391239;32;20280;-64
2023/09/14 10:35:56;;;;;;;2.83;1.35;;;20.10;99.90;;;;;;4390775;32;20050;-64
2023/09/14 10:38:23;;;;;;;0.30;0.30;;;20.20;99.90;;;;;;4399665;32;20090;-65
2023/09/14 10:40:51;;;;;;;0.10;0.10;;;20.20;99.90;;;;;;4409304;32;20242;-63
2023/09/14 10:43:17;;;;;;;0.30;0.30;;;20.10;99.90;;;;;;4406331;32;20096;-64
2023/09/14 10:45:44;;;;;;;0.20;0.20;;;20.10;99.90;;;;;;4404264;32;20148;-64
2023/09/14 10:48:16;;;;;;;0.20;0.20;;;19.80;99.90;;;;;;4399778;32;20584;-65
2023/09/14 10:50:41;;;;;;;0.17;0.17;;;19.70;99.90;;;;;;4382539;32;20360;-65
2023/09/14 10:53:07;;;;;;;0.20;0.20;;;19.90;99.90;;;;;;4374683;32;20081;-65
2023/09/14 10:55:35;;;;;;;0.30;0.30;;;20.00;99.90;;;;;;4388749;32;20105;-65
2023/09/14 10:58:01;;;;;;;0.10;0.10;;;20.20;99.90;;;;;;4389325;32;20070;-64
2023/09/14 11:00:32;;;;;;;0.40;0.40;;;20.20;99.90;;;;;;4370461;32;20077;-65
2023/09/14 11:02:58;;;;;;;0.10;0.10;;;20.00;99.90;;;;;;4398478;32;20418;-64
2023/09/14 11:05:42;;;;;;;0.22;0.22;;;19.80;99.90;;;;;;4393846;32;20142;-64
2023/09/14 11:08:08;;;;;;;1.23;0.95;;;19.60;99.90;;;;;;4399576;32;20097;-64
2023/09/14 11:10:34;;;;;;;0.28;0.28;;;19.50;99.90;;;;;;4394112;32;20190;-64
2023/09/14 11:13:22;;;;;;;0.22;0.22;;;19.70;99.90;;;;;;4394990;32;20860;-65
2023/09/14 11:16:13;;;;;;;0.30;0.30;;;20.10;99.90;;;;;;4384211;32;21407;-64
2023/09/14 11:18:48;;;;;;;0.20;0.20;;;20.60;99.90;;;;;;4400140;32;20097;-63
2023/09/14 11:21:35;;;;;;;0.20;0.20;;;21.10;99.90;;;;;;4403805;32;20092;-64
2023/09/14 11:24:03;;;;;;;0.28;0.28;;;21.50;99.90;;;;;;4385445;32;20343;-64
2023/09/14 11:26:33;;;;;;;0.52;0.52;;;21.70;99.90;;;;;;4383739;32;20238;-64
2023/09/14 11:28:59;;;;;;;0.20;0.20;;;21.90;99.90;;;;;;4395354;32;20565;-64
2023/09/14 11:31:33;;;;;;;0.10;0.10;;;22.30;99.90;;;;;;4376791;32;20110;-65
2023/09/14 11:34:05;;;;;;;7.87;0.60;;;22.60;99.90;;;;;;4365973;32;20416;-63
2023/09/14 11:36:32;;;;;;;0.28;0.22;;;22.60;99.90;;;;;;4381091;32;20126;-62
2023/09/14 11:38:59;;;;;;;0.20;0.20;;;22.70;99.90;;;;;;4372099;32;20704;-64
2023/09/14 11:41:48;;;;;;;0.62;0.32;;;22.20;99.90;;;;;;4376426;32;20486;-64
2023/09/14 11:44:15;;;;;;;0.20;0.20;;;21.90;99.90;;;;;;4382879;32;20255;-65
2023/09/14 11:46:42;;;;;;;0.40;0.40;;;21.80;99.90;;;;;;4401790;32;20653;-65
2023/09/14 11:49:08;;;;;;;0.08;0.08;;;21.50;99.90;;;;;;4370824;32;84513;-65
2023/09/14 11:51:34;;;;;;;0.30;0.30;;;21.10;99.90;;;;;;4405935;32;20069;-65
2023/09/14 11:54:00;;;;;;;2.20;1.17;;;21.30;99.90;;;;;;4408122;32;20086;-65
2023/09/14 11:56:27;;;;;;;0.17;0.17;;;22.00;99.90;;;;;;4401708;32;20450;-65
2023/09/14 11:58:53;;;;;;;0.62;0.22;;;22.40;99.90;;;;;;4397215;32;20086;-64
2023/09/14 12:01:19;;;;;;;0.10;0.10;;;23.10;99.90;;;;;;4383405;32;20065;-61
2023/09/14 12:03:45;;;;;;;0.20;0.20;;;23.60;99.10;;;;;;4401028;32;20069;-63
2023/09/14 12:06:11;;;;;;;0.10;0.10;;;24.00;99.70;;;;;;4406297;32;20089;-63
2023/09/14 12:08:46;;;;;;;0.35;0.20;;;24.50;98.70;;;;;;4388015;32;20423;-63
2023/09/14 12:11:11;;;;;;;0.43;0.30;;;24.90;97.30;;;;;;4384602;32;20069;-63
2023/09/14 12:13:48;;;;;;;0.10;0.10;;;25.40;97.10;;;;;;4402686;32;20532;-63
2023/09/14 12:16:20;;;;;;;0.22;0.13;;;25.80;96.70;;;;;;4389853;32;20062;-65
2023/09/14 12:18:45;;;;;;;0.10;0.10;;;25.80;94.30;;;;;;4376302;32;20124;-62
2023/09/14 12:21:11;;;;;;;0.20;0.20;;;25.70;94.30;;;;;;4406292;32;20424;-60
2023/09/14 12:23:39;;;;;;;0.65;0.43;;;25.90;94.20;;;;;;4406100;32;20081;-63
2023/09/14 12:26:07;;;;;;;0.10;0.10;;;25.60;94.20;;;;;;4389717;32;20152;-63
2023/09/14 12:28:33;;;;;;;0.43;0.37;;;25.60;94.70;;;;;;4387263;32;20081;-64
2023/09/14 12:30:59;;;;;;;0.10;0.10;;;25.60;94.80;;;;;;4400460;32;20106;-63
2023/09/14 12:33:25;;;;;;;0.25;0.22;;;25.90;94.70;;;;;;4401863;32;20077;-64
2023/09/14 12:35:50;;;;;;;0.10;0.10;;;26.70;93.00;;;;;;4384481;32;20104;-63
2023/09/14 12:38:16;;;;;;;0.52;0.32;;;27.10;93.70;;;;;;4404639;32;20085;-62
2023/09/14 12:40:42;;;;;;;0.10;0.10;;;26.90;93.90;;;;;;4407850;32;20101;-63
2023/09/14 12:43:07;;;;;;;0.20;0.10;;;26.80;94.80;;;;;;4383900;32;20370;-62
2023/09/14 12:45:33;;;;;;;0.10;0.10;;;26.40;94.00;;;;;;4399754;32;20081;-64
2023/09/14 12:48:04;;;;;;;0.20;0.20;;;26.20;93.50;;;;;;4405276;32;21129;-60